Time;durP1;ratioP1;P1;durP2;ratioP2;P2;SDS_P1;SDS_P2;PMS_P1;PMS_P2;Temp;Humidity;BMP_temperature;BMP_pressure;BME280_temperature;BME280_humidity;BME280_pressure;Samples;Min_cycle;Max_cycle;Signal;HPM_P1;HPM_P2
2023/09/29 00:00:23;;;;;;;14.77;5.72;;;;;;;21.80;85.88;98357.50;4908676;29;20513;-82
2023/09/29 00:03:08;;;;;;;11.88;5.13;;;;;;;21.76;85.85;98350.38;4894458;29;20471;-82
2023/09/29 00:05:53;;;;;;;11.52;5.00;;;;;;;21.71;85.91;98347.75;4905609;29;20047;-82
2023/09/29 00:08:37;;;;;;;13.27;5.07;;;;;;;21.77;85.61;98350.06;4905727;29;20097;-82
2023/09/29 00:11:21;;;;;;;18.08;5.60;;;;;;;21.63;85.89;98354.50;4885949;29;20616;-82
2023/09/29 00:14:06;;;;;;;16.63;5.70;;;;;;;21.62;85.57;98364.38;4888499;29;20514;-83
2023/09/29 00:16:50;;;;;;;12.32;5.15;;;;;;;21.72;85.68;98358.16;4885293;29;20056;-82
2023/09/29 00:19:34;;;;;;;12.88;5.50;;;;;;;21.65;85.64;98355.03;4885101;29;20043;-83
2023/09/29 00:22:18;;;;;;;16.63;6.18;;;;;;;21.73;85.54;98357.06;4891481;29;20108;-83
2023/09/29 00:25:06;;;;;;;10.93;5.40;;;;;;;21.71;85.60;98359.25;4885440;29;20055;-83
2023/09/29 00:27:50;;;;;;;14.93;5.85;;;;;;;21.67;85.49;98355.56;4881108;29;20068;-83
2023/09/29 00:30:34;;;;;;;10.52;5.22;;;;;;;21.78;85.36;98348.22;4884272;29;20055;-82
2023/09/29 00:33:18;;;;;;;11.55;4.97;;;;;;;21.68;85.72;98349.13;4883850;29;20088;-83
2023/09/29 00:36:02;;;;;;;12.80;5.47;;;;;;;21.63;85.68;98355.28;4884780;29;20044;-84
2023/09/29 00:38:46;;;;;;;9.82;4.95;;;;;;;21.69;85.36;98369.41;4889052;29;20079;-83
2023/09/29 00:41:31;;;;;;;11.35;4.80;;;;;;;21.61;85.39;98361.97;4885090;29;20383;-82
2023/09/29 00:44:16;;;;;;;8.82;5.38;;;;;;;21.61;85.29;98361.97;4886322;29;20039;-82
2023/09/29 00:47:01;;;;;;;11.98;5.18;;;;;;;21.50;85.70;98362.09;4881647;29;20171;-82
2023/09/29 00:49:48;;;;;;;11.18;5.28;;;;;;;21.42;85.04;98360.06;4886048;29;20088;-83
2023/09/29 00:52:34;;;;;;;10.43;4.97;;;;;;;21.41;85.93;98369.13;4884918;29;20538;-82
2023/09/29 00:55:24;;;;;;;9.73;5.28;;;;;;;21.47;85.52;98367.22;4902073;29;20093;-81
2023/09/29 00:58:09;;;;;;;14.98;5.22;;;;;;;21.47;85.84;98372.56;4881625;29;20048;-81
2023/09/29 01:00:53;;;;;;;13.25;4.82;;;;;;;21.50;86.14;98361.31;4888594;29;20040;-81
2023/09/29 01:03:37;;;;;;;15.55;6.20;;;;;;;21.39;85.76;98365.94;4889538;29;20104;-82
2023/09/29 01:06:21;;;;;;;12.98;5.85;;;;;;;21.40;85.79;98379.03;4888451;29;20063;-82
2023/09/29 01:09:06;;;;;;;9.80;4.88;;;;;;;21.03;86.06;98366.28;4883952;29;20039;-81
2023/09/29 01:11:52;;;;;;;8.23;4.60;;;;;;;20.97;86.13;98371.66;4888099;29;20075;-81
2023/09/29 01:14:36;;;;;;;12.00;5.43;;;;;;;21.11;85.71;98384.38;4889439;29;20138;-82
2023/09/29 01:17:25;;;;;;;12.57;5.32;;;;;;;21.19;85.81;98388.31;4885089;29;20182;-82
2023/09/29 01:20:18;;;;;;;13.10;5.72;;;;;;;21.17;85.66;98369.91;4887885;29;20562;-82
2023/09/29 01:23:04;;;;;;;14.25;5.70;;;;;;;21.10;85.45;98386.22;4885519;29;20055;-80
2023/09/29 01:25:48;;;;;;;15.43;6.35;;;;;;;20.94;85.55;98377.56;4890402;29;20120;-81
2023/09/29 01:28:33;;;;;;;12.35;5.72;;;;;;;20.91;85.65;98364.78;4881654;29;20085;-80
2023/09/29 01:31:18;;;;;;;12.50;5.10;;;;;;;20.68;85.83;98377.75;4888768;29;20128;-81
2023/09/29 01:34:04;;;;;;;11.70;5.00;;;;;;;20.62;85.76;98381.50;4885926;29;20100;-80
2023/09/29 01:36:48;;;;;;;11.60;5.53;;;;;;;20.74;85.67;98391.03;4888273;29;20093;-79
2023/09/29 01:39:32;;;;;;;8.48;5.03;;;;;;;20.48;85.98;98375.22;4888670;29;20415;-80
2023/09/29 01:42:19;;;;;;;11.82;5.40;;;;;;;20.36;86.32;98376.31;4884488;29;20060;-80
2023/09/29 01:45:04;;;;;;;12.85;5.55;;;;;;;20.36;86.03;98381.66;4889070;29;20064;-80
2023/09/29 01:47:49;;;;;;;12.35;5.15;;;;;;;20.29;85.78;98373.19;4884413;29;20507;-81
2023/09/29 01:50:33;;;;;;;8.60;4.68;;;;;;;20.22;86.17;98384.13;4882518;29;20096;-81
2023/09/29 01:53:17;;;;;;;9.65;4.97;;;;;;;20.22;85.74;98378.81;4884886;29;20076;-80
2023/09/29 01:56:04;;;;;;;12.90;5.47;;;;;;;20.15;85.88;98382.84;4885344;29;20116;-79
2023/09/29 01:58:49;;;;;;;10.68;5.30;;;;;;;20.06;85.93;98379.94;4884110;29;20518;-80
2023/09/29 02:01:36;;;;;;;13.90;5.65;;;;;;;20.07;86.27;98386.88;4888723;29;20040;-80
2023/09/29 02:04:20;;;;;;;13.15;6.05;;;;;;;20.07;86.45;98386.88;4890454;29;20052;-80
2023/09/29 02:07:04;;;;;;;8.85;4.90;;;;;;;20.19;85.96;98391.88;4889938;29;20043;-80
2023/09/29 02:09:48;;;;;;;9.52;4.75;;;;;;;20.14;85.24;98389.25;4889279;29;20104;-79
2023/09/29 02:12:32;;;;;;;10.48;4.93;;;;;;;20.17;85.84;98386.84;4889863;29;20116;-79
2023/09/29 02:15:17;;;;;;;14.52;5.70;;;;;;;20.14;85.61;98386.56;4906782;29;20051;-80
2023/09/29 02:18:04;;;;;;;14.85;5.95;;;;;;;20.09;85.82;98379.41;4890119;29;20510;-80
2023/09/29 02:20:48;;;;;;;12.32;6.25;;;;;;;20.09;85.75;98395.38;4908209;29;20407;-81
2023/09/29 02:23:38;;;;;;;14.43;4.88;;;;;;;20.03;86.04;98391.16;4908499;29;20043;-80
2023/09/29 02:26:22;;;;;;;16.25;5.70;;;;;;;20.12;86.71;98414.28;4903892;29;20092;-81
2023/09/29 02:29:12;;;;;;;13.98;5.63;;;;;;;20.16;86.23;98400.41;4889598;29;20071;-80
2023/09/29 02:31:56;;;;;;;12.77;5.03;;;;;;;20.22;86.99;98397.47;4902206;29;20044;-79
2023/09/29 02:34:40;;;;;;;20.13;5.70;;;;;;;20.47;86.40;98405.59;4890526;29;20095;-81
2023/09/29 02:37:24;;;;;;;18.58;6.05;;;;;;;20.35;86.93;98417.38;4898079;29;20103;-79
2023/09/29 02:40:12;;;;;;;16.02;5.95;;;;;;;20.39;86.51;98405.09;4892873;29;20043;-80
2023/09/29 02:42:56;;;;;;;15.20;5.85;;;;;;;20.60;86.29;98431.63;4906583;29;20051;-80
2023/09/29 02:45:40;;;;;;;14.20;6.03;;;;;;;20.62;86.02;98420.72;4893574;29;20047;-79
2023/09/29 02:48:25;;;;;;;18.08;6.25;;;;;;;20.69;86.40;98429.19;4901399;29;20068;-80
2023/09/29 02:51:19;;;;;;;17.55;7.25;;;;;;;20.65;86.76;98436.97;4887463;29;20414;-80
2023/09/29 02:54:06;;;;;;;21.58;7.68;;;;;;;20.59;86.19;98413.25;4890315;29;20727;-80
2023/09/29 02:56:50;;;;;;;18.33;8.30;;;;;;;20.33;87.38;98400.88;4890124;29;20496;-80
2023/09/29 02:59:34;;;;;;;21.00;8.00;;;;;;;20.50;86.61;98419.16;4899778;29;20443;-80
2023/09/29 03:02:18;;;;;;;21.38;8.80;;;;;;;20.35;86.93;98420.03;4894673;29;20096;-79
2023/09/29 03:05:05;;;;;;;20.15;8.02;;;;;;;20.35;86.61;98425.38;4901067;29;20177;-80
2023/09/29 03:07:50;;;;;;;27.95;9.60;;;;;;;20.35;86.73;98436.03;4887120;29;20043;-81
2023/09/29 03:10:34;;;;;;;16.35;9.05;;;;;;;20.53;86.84;98452.47;4906704;29;20181;-80
2023/09/29 03:13:17;;;;;;;25.95;9.40;;;;;;;20.56;86.33;98446.59;4900189;29;20109;-80
2023/09/29 03:16:01;;;;;;;20.77;9.18;;;;;;;20.49;86.81;98457.56;4903957;29;20455;-80
2023/09/29 03:18:46;;;;;;;24.05;11.18;;;;;;;20.44;86.87;98472.78;4897691;29;20047;-80
2023/09/29 03:21:30;;;;;;;32.15;13.15;;;;;;;20.50;87.11;98469.03;4900227;29;20103;-80
2023/09/29 03:24:14;;;;;;;31.40;13.55;;;;;;;20.48;88.20;98473.84;4901747;29;20091;-80
2023/09/29 03:26:59;;;;;;;37.55;15.43;;;;;;;20.48;87.68;98465.84;4895737;29;20047;-80
2023/09/29 03:29:43;;;;;;;30.15;14.00;;;;;;;20.35;88.64;98473.34;4904460;29;20043;-81
2023/09/29 03:32:29;;;;;;;34.70;16.13;;;;;;;20.39;88.36;98469.06;4902261;29;20043;-80
2023/09/29 03:35:13;;;;;;;32.65;16.65;;;;;;;20.49;88.93;98486.88;4902067;29;20048;-79
2023/09/29 03:37:58;;;;;;;30.05;16.10;;;;;;;20.84;88.11;98476.34;4888268;29;20050;-80
2023/09/29 03:40:44;;;;;;;26.90;13.38;;;;;;;20.69;88.74;98479.84;4908500;29;20039;-80
2023/09/29 03:43:28;;;;;;;20.40;12.18;;;;;;;20.75;88.08;98491.28;4905197;29;20064;-80
2023/09/29 03:46:17;;;;;;;20.27;10.82;;;;;;;20.89;88.05;98486.97;4906462;29;20067;-80
2023/09/29 03:49:01;;;;;;;12.43;7.30;;;;;;;20.73;89.34;98494.22;4894514;29;20047;-80
2023/09/29 03:51:45;;;;;;;12.20;5.85;;;;;;;20.53;90.22;98511.91;4906037;29;20055;-79
2023/09/29 03:54:29;;;;;;;8.43;3.40;;;;;;;20.04;90.42;98510.75;4893367;29;20092;-80
2023/09/29 03:57:13;;;;;;;9.23;3.60;;;;;;;20.39;89.43;98516.25;4908857;29;20095;-80
2023/09/29 03:59:58;;;;;;;13.13;3.90;;;;;;;19.62;89.39;98525.16;4905592;29;20053;-80
2023/09/29 04:02:42;;;;;;;8.57;3.20;;;;;;;19.68;88.39;98527.53;4905723;29;20047;-80
2023/09/29 04:05:26;;;;;;;13.65;4.80;;;;;;;19.57;87.92;98527.81;4891195;29;20055;-80
2023/09/29 04:08:10;;;;;;;12.27;4.60;;;;;;;19.80;87.41;98524.59;4908304;29;20512;-80
2023/09/29 04:10:55;;;;;;;16.20;5.57;;;;;;;19.37;88.50;98558.69;4889267;29;20059;-80
2023/09/29 04:13:41;;;;;;;15.13;6.05;;;;;;;19.53;87.91;98544.31;4895564;29;20103;-80
2023/09/29 04:16:26;;;;;;;19.13;6.70;;;;;;;19.36;88.22;98541.13;4908040;29;20051;-80
2023/09/29 04:19:12;;;;;;;26.08;7.75;;;;;;;18.95;88.89;98561.22;4905724;29;20056;-80
2023/09/29 04:21:57;;;;;;;22.13;7.85;;;;;;;19.31;87.76;98570.38;4906736;29;20043;-80
2023/09/29 04:24:42;;;;;;;25.17;8.05;;;;;;;19.18;87.88;98585.00;4893405;29;20051;-81
2023/09/29 04:27:26;;;;;;;24.70;8.43;;;;;;;19.29;87.36;98560.00;4892500;29;20099;-80
2023/09/29 04:30:12;;;;;;;21.77;7.68;;;;;;;19.41;86.80;98570.38;4893611;29;20411;-81
2023/09/29 04:32:56;;;;;;;23.83;8.68;;;;;;;19.28;87.03;98563.72;4907624;29;20047;-80
2023/09/29 04:35:40;;;;;;;27.90;7.88;;;;;;;19.34;86.69;98573.31;4900452;29;20100;-80
2023/09/29 04:38:24;;;;;;;18.25;7.88;;;;;;;19.49;85.93;98572.53;4909047;29;20505;-81
2023/09/29 04:41:08;;;;;;;24.98;7.65;;;;;;;19.16;86.84;98585.25;4906366;29;20567;-80
2023/09/29 04:43:52;;;;;;;27.95;8.65;;;;;;;19.01;87.13;98571.91;4908750;29;20066;-80
2023/09/29 04:46:38;;;;;;;27.38;8.55;;;;;;;19.11;86.88;98563.97;4894220;29;20120;-79
2023/09/29 04:49:21;;;;;;;24.80;9.27;;;;;;;19.15;86.16;98581.00;4892425;29;20051;-79
2023/09/29 04:52:05;;;;;;;31.60;8.95;;;;;;;18.57;88.13;98573.84;4889633;29;20079;-81
2023/09/29 04:54:49;;;;;;;25.48;9.73;;;;;;;19.01;86.63;98585.19;4905026;29;20047;-79
2023/09/29 04:57:33;;;;;;;25.83;8.80;;;;;;;18.86;86.76;98597.34;4896527;29;20090;-81
2023/09/29 05:00:17;;;;;;;28.35;10.10;;;;;;;19.03;86.20;98594.53;4904561;29;20035;-81
2023/09/29 05:03:02;;;;;;;26.90;9.90;;;;;;;19.02;86.39;98586.81;4907135;29;20545;-80
2023/09/29 05:05:48;;;;;;;31.45;9.85;;;;;;;19.29;85.46;98607.09;4891662;29;20108;-80
2023/09/29 05:08:32;;;;;;;25.35;9.05;;;;;;;18.92;86.06;98599.00;4905885;29;20104;-81
2023/09/29 05:11:21;;;;;;;25.48;8.55;;;;;;;18.95;86.57;98619.75;4905870;29;20055;-80
2023/09/29 05:14:05;;;;;;;32.83;9.75;;;;;;;18.76;87.02;98624.69;4896088;29;20123;-81
2023/09/29 05:16:50;;;;;;;25.83;8.35;;;;;;;18.65;86.40;98631.03;4890562;29;20074;-80
2023/09/29 05:19:33;;;;;;;23.23;8.15;;;;;;;18.33;86.13;98615.94;4889516;29;20059;-81
2023/09/29 05:22:17;;;;;;;23.45;7.78;;;;;;;18.73;86.55;98635.06;4906352;29;20079;-81
2023/09/29 05:25:02;;;;;;;27.95;7.63;;;;;;;18.94;85.29;98639.41;4907199;29;20116;-81
2023/09/29 05:27:46;;;;;;;29.77;7.28;;;;;;;18.77;84.82;98646.78;4888915;29;20047;-79
2023/09/29 05:30:30;;;;;;;21.50;6.15;;;;;;;18.58;85.52;98652.53;4895201;29;20418;-80
2023/09/29 05:33:13;;;;;;;18.58;6.05;;;;;;;18.58;85.00;98647.19;4900719;29;20428;-79
2023/09/29 05:35:58;;;;;;;21.80;6.18;;;;;;;18.29;86.00;98658.19;4906202;29;20046;-80
2023/09/29 05:38:43;;;;;;;25.35;6.75;;;;;;;18.82;84.78;98657.44;4891917;29;20039;-79
2023/09/29 05:41:31;;;;;;;25.42;6.38;;;;;;;18.59;84.61;98661.31;4890868;29;20039;-79
2023/09/29 05:44:15;;;;;;;24.60;6.75;;;;;;;18.38;85.14;98664.63;4905453;29;20063;-80
2023/09/29 05:46:59;;;;;;;23.40;6.88;;;;;;;18.27;86.18;98686.84;4890196;29;20414;-79
2023/09/29 05:49:43;;;;;;;21.48;6.82;;;;;;;18.29;85.34;98682.09;4892714;29;20040;-79
2023/09/29 05:52:27;;;;;;;26.75;6.38;;;;;;;18.44;85.31;98677.94;4894717;29;20108;-80
2023/09/29 05:55:12;;;;;;;24.02;5.95;;;;;;;18.34;85.81;98706.03;4890435;29;20051;-79
2023/09/29 05:57:57;;;;;;;27.30;6.15;;;;;;;18.31;85.69;98706.56;4901554;29;20113;-79
2023/09/29 06:00:41;;;;;;;28.88;7.00;;;;;;;18.52;85.21;98718.13;4891993;29;20046;-80
2023/09/29 06:03:25;;;;;;;23.17;7.35;;;;;;;18.54;85.30;98709.91;4902702;29;20098;-80
2023/09/29 06:06:09;;;;;;;23.33;6.28;;;;;;;18.82;84.56;98722.06;4891108;29;20078;-80
2023/09/29 06:08:53;;;;;;;21.02;5.95;;;;;;;18.54;85.21;98725.84;4906115;29;20088;-81
2023/09/29 06:11:37;;;;;;;29.42;6.75;;;;;;;18.71;84.50;98731.00;4885988;29;20422;-81
2023/09/29 06:14:21;;;;;;;20.13;5.72;;;;;;;19.10;83.39;98738.72;4880642;29;20039;-80
2023/09/29 06:17:05;;;;;;;27.35;6.78;;;;;;;18.82;83.97;98737.19;4883160;29;20151;-80
2023/09/29 06:19:50;;;;;;;21.95;6.80;;;;;;;19.14;83.28;98754.97;4887108;29;20559;-78
2023/09/29 06:22:34;;;;;;;26.50;7.07;;;;;;;19.24;82.76;98755.00;4886746;29;20132;-80
2023/09/29 06:25:18;;;;;;;27.92;6.45;;;;;;;18.91;83.50;98764.09;4882797;29;20044;-81
2023/09/29 06:28:03;;;;;;;20.08;5.38;;;;;;;19.01;83.02;98772.19;4879011;29;20120;-82
2023/09/29 06:30:48;;;;;;;19.50;5.47;;;;;;;18.78;83.58;98776.81;4885374;29;20072;-82
2023/09/29 06:33:32;;;;;;;17.38;5.55;;;;;;;18.92;83.43;98782.47;4891582;29;20062;-82
2023/09/29 06:36:16;;;;;;;18.58;6.40;;;;;;;18.66;84.09;98784.16;4888260;29;20245;-83
2023/09/29 06:39:00;;;;;;;22.08;6.40;;;;;;;18.91;83.82;98791.53;4887360;29;20076;-82
2023/09/29 06:41:44;;;;;;;23.55;6.50;;;;;;;18.81;84.50;98775.47;4891192;29;20048;-84
2023/09/29 06:44:29;;;;;;;29.55;7.38;;;;;;;19.08;83.98;98798.56;4890599;29;20104;-83
2023/09/29 06:47:13;;;;;;;25.40;6.82;;;;;;;18.91;84.34;98778.22;4886361;29;20123;-81
2023/09/29 06:49:58;;;;;;;22.48;7.00;;;;;;;19.11;84.25;98806.81;4891729;29;20510;-82
2023/09/29 06:52:42;;;;;;;25.33;7.00;;;;;;;18.96;84.66;98796.06;4894045;29;20622;-84
2023/09/29 06:55:26;;;;;;;23.13;6.32;;;;;;;18.76;85.49;98823.31;4884279;29;20104;-83
2023/09/29 06:58:11;;;;;;;23.33;6.70;;;;;;;19.09;85.21;98826.78;4882381;29;20055;-80
2023/09/29 07:00:56;;;;;;;20.70;6.13;;;;;;;19.26;84.73;98824.75;4880746;29;20413;-83
2023/09/29 07:03:40;;;;;;;20.83;6.25;;;;;;;18.94;85.33;98800.81;4877074;29;20036;-79
2023/09/29 07:06:25;;;;;;;26.15;7.30;;;;;;;19.27;84.94;98844.19;4880940;29;20132;-79
2023/09/29 07:09:10;;;;;;;23.25;5.70;;;;;;;19.37;84.54;98832.78;4884546;29;20060;-79
2023/09/29 07:11:54;;;;;;;22.30;6.78;;;;;;;19.07;85.32;98842.19;4863812;29;20108;-79
2023/09/29 07:14:38;;;;;;;22.58;6.20;;;;;;;19.35;84.00;98834.91;4871392;29;20132;-80
2023/09/29 07:17:22;;;;;;;31.75;7.07;;;;;;;19.41;84.31;98865.81;4868679;29;20102;-79
2023/09/29 07:20:08;;;;;;;17.60;5.68;;;;;;;18.90;84.78;98866.22;4866788;29;20231;-80
2023/09/29 07:22:52;;;;;;;23.60;6.55;;;;;;;18.91;84.85;98865.97;4868930;29;20048;-80
2023/09/29 07:25:40;;;;;;;23.65;6.07;;;;;;;18.89;84.46;98857.47;4865112;29;20052;-80
2023/09/29 07:28:24;;;;;;;25.92;6.90;;;;;;;19.31;83.59;98871.88;4872154;29;20487;-82
2023/09/29 07:31:09;;;;;;;24.42;5.63;;;;;;;19.07;83.92;98887.41;4865302;29;20044;-81
2023/09/29 07:33:53;;;;;;;25.17;5.38;;;;;;;19.36;83.48;98889.75;4871067;29;20132;-80
2023/09/29 07:36:39;;;;;;;28.27;5.60;;;;;;;18.98;83.37;98887.88;4865354;29;20161;-82
2023/09/29 07:39:23;;;;;;;21.83;5.47;;;;;;;19.19;83.54;98927.94;4867685;29;20056;-84
2023/09/29 07:42:07;;;;;;;18.33;5.03;;;;;;;19.23;83.41;98912.28;4869822;29;20073;-82
2023/09/29 07:44:51;;;;;;;14.25;4.57;;;;;;;19.15;83.40;98913.53;4870876;29;20516;-82
2023/09/29 07:47:35;;;;;;;21.45;5.95;;;;;;;19.59;82.58;98927.69;4868058;29;20094;-81
2023/09/29 07:50:20;;;;;;;17.05;4.97;;;;;;;19.90;81.26;98938.50;4872339;29;20056;-81
2023/09/29 07:53:04;;;;;;;;;;;;;;;19.72;81.05;98963.69;4871272;29;20469;-82
2023/09/29 07:55:47;;;;;;;21.35;5.22;;;;;;;20.15;80.73;98937.06;4867752;29;19922;-81
2023/09/29 07:58:31;;;;;;;17.52;5.25;;;;;;;20.24;80.08;98946.13;4869743;29;20132;-82
2023/09/29 08:01:15;;;;;;;15.88;3.97;;;;;;;19.94;80.54;98956.38;4865685;29;20044;-82
2023/09/29 08:03:59;;;;;;;31.23;5.05;;;;;;;19.96;79.95;98945.50;4868975;29;20096;-81
2023/09/29 08:06:45;;;;;;;21.75;5.10;;;;;;;20.19;78.79;98959.44;4867118;29;20048;-82
2023/09/29 08:09:29;;;;;;;18.83;4.28;;;;;;;20.56;78.02;98953.19;4866951;29;20060;-83
2023/09/29 08:12:13;;;;;;;14.88;3.95;;;;;;;20.63;77.75;98953.72;4890012;29;20044;-82
2023/09/29 08:14:57;;;;;;;14.13;3.72;;;;;;;20.62;78.15;98978.78;4903475;29;20403;-82
2023/09/29 08:17:41;;;;;;;18.83;4.25;;;;;;;20.87;76.51;98974.63;4892960;29;20466;-82
2023/09/29 08:20:26;;;;;;;17.38;3.90;;;;;;;20.42;77.28;98990.19;4891438;29;20048;-82
2023/09/29 08:23:10;;;;;;;24.58;5.07;;;;;;;21.07;76.60;98979.16;4907109;29;20048;-82
2023/09/29 08:25:54;;;;;;;18.33;3.97;;;;;;;20.45;76.99;98962.22;4903512;29;20139;-81
2023/09/29 08:28:38;;;;;;;15.95;4.63;;;;;;;20.64;76.57;98990.03;4902197;29;20060;-82
2023/09/29 08:31:23;;;;;;;18.52;4.40;;;;;;;20.76;75.88;98984.44;4905581;29;20119;-81
2023/09/29 08:34:07;;;;;;;14.60;4.22;;;;;;;20.90;75.75;98997.28;4890940;29;20513;-81
2023/09/29 08:36:52;;;;;;;17.13;4.03;;;;;;;20.90;75.06;99002.63;4890791;29;20067;-82
2023/09/29 08:39:36;;;;;;;17.08;4.70;;;;;;;21.27;75.25;98996.28;4904918;29;20100;-84
2023/09/29 08:42:29;;;;;;;17.17;4.55;;;;;;;21.44;74.62;99003.22;4908042;29;20054;-80
2023/09/29 08:45:13;;;;;;;19.45;4.22;;;;;;;21.33;75.21;99026.44;4900419;29;20524;-81
2023/09/29 08:47:59;;;;;;;12.77;4.38;;;;;;;21.09;75.03;99025.06;4891748;29;20052;-83
2023/09/29 08:50:44;;;;;;;16.88;3.95;;;;;;;21.40;74.31;99014.44;4906150;29;20039;-81
2023/09/29 08:53:30;;;;;;;23.08;4.82;;;;;;;21.48;73.81;98985.59;4901763;29;20051;-83
2023/09/29 08:56:16;;;;;;;16.58;4.90;;;;;;;22.18;72.73;99021.56;4890566;29;20183;-83
2023/09/29 08:59:02;;;;;;;14.95;4.05;;;;;;;22.15;72.60;99016.75;4893205;29;20055;-82
2023/09/29 09:01:46;;;;;;;19.58;3.92;;;;;;;21.72;72.33;99007.22;4904973;29;20056;-82
2023/09/29 09:04:30;;;;;;;13.27;3.97;;;;;;;21.72;72.13;99023.25;4905394;29;20059;-82
2023/09/29 09:07:15;;;;;;;14.82;3.08;;;;;;;21.47;72.42;99034.72;4904494;29;20047;-81
2023/09/29 09:09:59;;;;;;;17.08;3.85;;;;;;;21.63;71.50;99009.63;4902038;29;20513;-81
2023/09/29 09:12:43;;;;;;;12.00;4.60;;;;;;;22.21;70.88;99026.38;4890859;29;20047;-82
2023/09/29 09:15:27;;;;;;;13.93;3.40;;;;;;;22.10;70.51;99050.47;4891933;29;20147;-82
2023/09/29 09:18:11;;;;;;;14.93;3.53;;;;;;;22.00;69.92;99037.09;4905952;29;20455;-81
2023/09/29 09:20:59;;;;;;;13.65;3.78;;;;;;;22.12;69.97;99044.84;4890159;29;20048;-81
2023/09/29 09:23:43;;;;;;;16.17;4.00;;;;;;;22.78;69.08;99050.25;4902352;29;20087;-81
2023/09/29 09:26:30;;;;;;;14.50;3.70;;;;;;;23.17;68.65;99057.50;4902948;29;20121;-81
2023/09/29 09:29:16;;;;;;;19.75;3.75;;;;;;;22.83;68.76;99063.63;4900566;29;20039;-81
2023/09/29 09:32:03;;;;;;;11.88;3.47;;;;;;;22.73;68.50;99060.97;4889353;29;20055;-81
2023/09/29 09:34:47;;;;;;;10.20;3.15;;;;;;;23.29;68.48;99081.31;4895246;29;20047;-81
2023/09/29 09:37:31;;;;;;;15.05;3.38;;;;;;;22.42;68.81;99090.50;4904010;29;20064;-81
2023/09/29 09:40:16;;;;;;;15.10;3.80;;;;;;;22.28;68.71;99077.69;4887310;29;20100;-81
2023/09/29 09:43:05;;;;;;;11.07;3.78;;;;;;;22.37;68.83;99081.38;4892646;29;20039;-81
2023/09/29 09:46:02;;;;;;;17.00;4.10;;;;;;;22.40;69.37;99088.91;4903178;29;20582;-82
2023/09/29 09:49:07;;;;;;;14.85;3.75;;;;;;;21.99;70.17;99094.28;4888518;29;20509;-80
2023/09/29 09:51:54;;;;;;;12.60;3.88;;;;;;;21.98;69.65;99103.38;4905151;29;20083;-80
2023/09/29 09:55:02;;;;;;;18.00;3.88;;;;;;;22.23;68.74;99110.56;4904904;29;20052;-80
2023/09/29 09:57:50;;;;;;;14.40;3.17;;;;;;;22.88;68.53;99108.25;4891430;29;20079;-80
2023/09/29 10:00:34;;;;;;;15.75;4.25;;;;;;;23.13;68.91;99118.03;4885767;29;20099;-82
2023/09/29 10:03:21;;;;;;;10.55;3.60;;;;;;;22.75;68.26;99115.00;4902299;29;20072;-79
2023/09/29 10:06:07;;;;;;;13.73;3.58;;;;;;;22.13;69.13;99115.94;4886328;29;20047;-84
2023/09/29 10:09:00;;;;;;;14.43;3.50;;;;;;;22.23;68.85;99129.28;4904199;29;20099;-85
2023/09/29 10:11:47;;;;;;;13.10;3.53;;;;;;;22.21;69.34;99134.09;4888304;29;20108;-85
2023/09/29 10:14:40;;;;;;;12.48;3.90;;;;;;;22.51;68.62;99135.16;4887788;29;20267;-86
2023/09/29 10:17:39;;;;;;;12.38;3.55;;;;;;;22.61;68.68;99128.97;4903451;29;20227;-83
2023/09/29 10:20:24;;;;;;;12.80;3.30;;;;;;;22.77;67.90;99136.94;4891082;29;20513;-86
2023/09/29 10:23:13;;;;;;;10.10;3.25;;;;;;;23.01;67.52;99128.31;4902819;29;20051;-84
2023/09/29 10:25:59;;;;;;;9.40;3.42;;;;;;;23.22;67.57;99140.50;4904273;29;20055;-85
2023/09/29 10:28:45;;;;;;;15.55;3.25;;;;;;;23.11;66.84;99152.34;4904814;29;20061;-86
2023/09/29 10:31:29;;;;;;;16.08;4.25;;;;;;;23.74;66.18;99158.94;4903200;29;20052;-85
2023/09/29 10:34:24;;;;;;;9.65;3.10;;;;;;;23.96;65.38;99160.38;4904114;29;20098;-85
2023/09/29 10:37:11;;;;;;;11.23;3.35;;;;;;;23.58;65.58;99168.16;4890903;29;20571;-84
2023/09/29 10:39:55;;;;;;;13.48;2.67;;;;;;;23.61;64.72;99167.63;4902291;29;20084;-85
2023/09/29 10:42:40;;;;;;;12.30;3.25;;;;;;;23.96;64.92;99181.81;4889561;29;20463;-86
2023/09/29 10:45:28;;;;;;;9.77;3.25;;;;;;;24.08;64.26;99179.63;4902825;29;20529;-86
2023/09/29 10:48:12;;;;;;;14.25;3.20;;;;;;;23.88;64.12;99171.72;4905863;29;20099;-87
2023/09/29 10:50:56;;;;;;;9.07;3.05;;;;;;;23.10;64.75;99191.69;4902714;29;20562;-86
2023/09/29 10:53:40;;;;;;;11.43;2.83;;;;;;;23.62;63.64;99190.66;4901117;29;20101;-86
2023/09/29 10:56:27;;;;;;;9.43;2.80;;;;;;;23.04;64.75;99195.47;4903920;29;20136;-85
2023/09/29 10:59:11;;;;;;;8.48;2.63;;;;;;;22.96;64.70;99194.13;4902275;29;20530;-85
2023/09/29 11:01:56;;;;;;;8.38;3.33;;;;;;;23.17;64.75;99210.13;4899243;29;20165;-79
2023/09/29 11:04:40;;;;;;;12.45;3.40;;;;;;;23.44;64.68;99203.63;4898158;29;20423;-81
2023/09/29 11:07:29;;;;;;;10.60;3.63;;;;;;;23.30;65.20;99203.44;4900617;29;20398;-78
2023/09/29 11:10:13;;;;;;;13.15;3.85;;;;;;;22.87;64.94;99209.16;4906110;29;20051;-81
2023/09/29 11:12:58;;;;;;;7.35;2.80;;;;;;;22.53;64.73;99204.41;4905561;29;20406;-81
2023/09/29 11:15:42;;;;;;;11.00;3.05;;;;;;;22.36;65.70;99210.81;4891348;29;20050;-80
2023/09/29 11:18:27;;;;;;;7.13;2.60;;;;;;;23.53;64.99;99227.94;4901271;29;20086;-80
2023/09/29 11:21:12;;;;;;;10.77;3.22;;;;;;;23.05;64.28;99233.75;4902689;29;20062;-80
2023/09/29 11:24:07;;;;;;;10.60;3.13;;;;;;;23.37;63.83;99224.53;4885818;29;20083;-79
2023/09/29 11:26:55;;;;;;;7.55;2.70;;;;;;;23.94;63.48;99234.94;4882245;29;20142;-79
2023/09/29 11:29:39;;;;;;;9.77;2.80;;;;;;;23.75;64.04;99237.47;4898189;29;20123;-79
2023/09/29 11:32:23;;;;;;;13.82;3.42;;;;;;;23.50;64.42;99233.88;4886235;29;20055;-79
2023/09/29 11:35:13;;;;;;;8.77;3.05;;;;;;;24.63;63.06;99234.94;4904574;29;20403;-80
2023/09/29 11:37:58;;;;;;;8.63;3.05;;;;;;;24.19;62.60;99241.22;4889843;29;20429;-80
2023/09/29 11:40:43;;;;;;;6.78;2.22;;;;;;;24.23;63.21;99242.28;4887059;29;20490;-79
2023/09/29 11:43:27;;;;;;;8.35;3.00;;;;;;;24.28;63.10;99244.91;4901576;29;20055;-78
2023/09/29 11:46:14;;;;;;;10.00;2.58;;;;;;;24.50;61.95;99232.91;4905276;29;20082;-79
2023/09/29 11:48:58;;;;;;;10.98;2.70;;;;;;;24.52;62.10;99249.53;4902837;29;20047;-79
2023/09/29 11:51:42;;;;;;;12.07;2.80;;;;;;;23.98;62.33;99259.31;4900431;29;20120;-79
2023/09/29 11:54:26;;;;;;;8.05;2.90;;;;;;;23.71;62.20;99263.22;4899457;29;20051;-79
2023/09/29 11:57:10;;;;;;;6.35;2.30;;;;;;;23.30;62.61;99259.66;4900202;29;20108;-79
2023/09/29 11:59:54;;;;;;;10.32;2.70;;;;;;;23.77;62.69;99272.84;4885195;29;20043;-79
2023/09/29 12:02:39;;;;;;;7.57;2.25;;;;;;;24.05;61.68;99263.31;4904716;29;20085;-79
2023/09/29 12:05:23;;;;;;;9.15;2.75;;;;;;;24.11;62.03;99266.75;4895766;29;20161;-79
2023/09/29 12:08:07;;;;;;;9.95;2.55;;;;;;;23.73;62.89;99277.94;4908609;29;20056;-80
2023/09/29 12:10:51;;;;;;;6.60;2.05;;;;;;;23.12;62.51;99271.72;4906736;29;20387;-80
2023/09/29 12:13:39;;;;;;;4.65;1.88;;;;;;;23.41;62.56;99259.59;4913293;29;20044;-79
2023/09/29 12:16:23;;;;;;;8.63;2.95;;;;;;;23.47;61.34;99259.31;4904510;29;20101;-80
2023/09/29 12:19:08;;;;;;;8.80;2.50;;;;;;;23.17;62.26;99281.63;4892346;29;20059;-80
2023/09/29 12:21:52;;;;;;;6.90;2.13;;;;;;;23.63;61.27;99262.72;4894102;29;20171;-80
2023/09/29 12:24:38;;;;;;;6.43;2.67;;;;;;;23.76;60.38;99282.75;4905424;29;20091;-79
2023/09/29 12:27:22;;;;;;;5.75;2.30;;;;;;;24.04;59.47;99266.25;4908579;29;20458;-79
2023/09/29 12:30:08;;;;;;;7.00;2.10;;;;;;;23.99;59.01;99285.84;4903856;29;20170;-80
2023/09/29 12:32:52;;;;;;;11.60;3.05;;;;;;;24.02;58.90;99279.97;4906534;29;20055;-80
2023/09/29 12:35:36;;;;;;;4.80;2.20;;;;;;;23.91;59.48;99273.03;4903472;29;20083;-79
2023/09/29 12:38:20;;;;;;;7.43;2.03;;;;;;;23.88;59.96;99273.56;4894400;29;20050;-80
2023/09/29 12:41:05;;;;;;;4.10;1.63;;;;;;;23.76;59.36;99282.75;4908132;29;20031;-79
2023/09/29 12:43:48;;;;;;;6.05;1.92;;;;;;;23.29;58.70;99294.75;4900848;29;20252;-80
2023/09/29 12:46:32;;;;;;;2.58;1.85;;;;;;;23.22;58.61;99284.28;4888488;29;20465;-79
2023/09/29 12:49:16;;;;;;;3.40;1.92;;;;;;;23.07;58.92;99280.56;4905240;29;20459;-80